Time;durP1;ratioP1;P1;durP2;ratioP2;P2;SDS_P1;SDS_P2;PMS_P1;PMS_P2;Temp;Humidity;BMP_temperature;BMP_pressure;BME280_temperature;BME280_humidity;BME280_pressure;Samples;Min_cycle;Max_cycle;Signal;HPM_P1;HPM_P2
2021/06/12 00:00:13;;;;;;;10.93;9.57;;;;;;;19.77;100.00;100949.19;4921838;28;20222;-75
2021/06/12 00:02:38;;;;;;;10.25;9.20;;;;;;;19.73;100.00;100945.47;4921716;29;20657;-74
2021/06/12 00:05:05;;;;;;;10.15;9.15;;;;;;;19.71;100.00;100946.94;4922152;28;20190;-75
2021/06/12 00:07:31;;;;;;;10.40;9.40;;;;;;;19.82;100.00;100938.03;4938387;29;20618;-74
2021/06/12 00:09:57;;;;;;;10.70;9.60;;;;;;;19.71;100.00;100938.66;4922311;29;20171;-74
2021/06/12 00:12:25;;;;;;;9.90;8.90;;;;;;;19.80;100.00;100940.28;4937317;29;20598;-76
2021/06/12 00:14:52;;;;;;;11.35;9.15;;;;;;;19.84;100.00;100952.31;4938091;29;20314;-76
2021/06/12 00:17:20;;;;;;;10.45;8.70;;;;;;;19.71;100.00;100942.22;4905844;29;20237;-75
2021/06/12 00:19:48;;;;;;;8.90;8.07;;;;;;;19.60;100.00;100944.84;4937832;29;20705;-74
2021/06/12 00:22:16;;;;;;;7.85;7.15;;;;;;;19.51;100.00;100952.28;4921305;29;20227;-76
2021/06/12 00:24:41;;;;;;;8.52;7.63;;;;;;;19.52;100.00;100940.09;4937955;29;20183;-76
2021/06/12 00:27:12;;;;;;;9.25;8.35;;;;;;;19.63;100.00;100938.66;4921560;29;20258;-74
2021/06/12 00:29:39;;;;;;;9.23;8.20;;;;;;;19.75;100.00;100934.91;4937932;29;20191;-75
2021/06/12 00:32:10;;;;;;;9.15;7.55;;;;;;;19.84;100.00;100946.78;4920606;29;20729;-77
2021/06/12 00:34:38;;;;;;;9.48;8.10;;;;;;;19.89;100.00;100946.63;4937641;29;20183;-76
2021/06/12 00:37:06;;;;;;;8.30;7.50;;;;;;;19.84;100.00;100949.53;4937203;29;20250;-76
2021/06/12 00:39:34;;;;;;;8.25;7.50;;;;;;;19.99;100.00;100948.22;4938036;29;20219;-76
2021/06/12 00:41:59;;;;;;;9.88;8.20;;;;;;;20.07;100.00;100934.41;4920468;29;20250;-76
2021/06/12 00:44:25;;;;;;;8.20;7.40;;;;;;;20.12;100.00;100942.53;4921892;29;20194;-76
2021/06/12 00:46:50;;;;;;;8.98;7.85;;;;;;;19.89;100.00;100940.28;4936914;29;20230;-75
2021/06/12 00:49:20;;;;;;;8.40;7.65;;;;;;;19.87;100.00;100942.56;4921165;29;20183;-76
2021/06/12 00:51:48;;;;;;;8.18;7.43;;;;;;;19.81;100.00;100944.66;4920629;29;20235;-75
2021/06/12 00:54:18;;;;;;;8.07;7.28;;;;;;;19.90;100.00;100942.72;4905732;29;20245;-75
2021/06/12 00:56:44;;;;;;;9.77;8.07;;;;;;;19.87;100.00;100935.13;4936722;29;20292;-76
2021/06/12 00:59:09;;;;;;;8.48;7.68;;;;;;;19.67;100.00;100940.44;4905804;29;20215;-75
2021/06/12 01:01:37;;;;;;;8.18;7.40;;;;;;;19.85;100.00;100934.63;4920742;29;20238;-76
2021/06/12 01:04:06;;;;;;;7.95;7.15;;;;;;;19.81;100.00;100933.63;4945273;28;20197;-76
2021/06/12 01:06:31;;;;;;;7.97;7.28;;;;;;;19.71;100.00;100931.19;4931993;28;20230;-77
2021/06/12 01:09:02;;;;;;;8.38;7.57;;;;;;;19.89;100.00;100932.84;4940303;28;20726;-75
2021/06/12 01:11:31;;;;;;;8.70;7.85;;;;;;;19.73;100.00;100926.16;4956154;28;20317;-76
2021/06/12 01:14:04;;;;;;;8.48;7.53;;;;;;;19.74;100.00;100925.03;4923393;28;20253;-75
2021/06/12 01:16:39;;;;;;;8.35;7.55;;;;;;;19.76;100.00;100922.75;4955607;28;20355;-76
2021/06/12 01:19:32;;;;;;;8.82;7.93;;;;;;;19.58;100.00;100920.34;4940093;28;20209;-76
2021/06/12 01:21:59;;;;;;;8.75;7.82;;;;;;;19.62;100.00;100921.31;4924664;28;20269;-75
2021/06/12 01:24:56;;;;;;;8.55;7.45;;;;;;;19.69;100.00;100919.69;4940190;28;20197;-76
2021/06/12 01:27:50;;;;;;;8.60;7.70;;;;;;;19.74;100.00;100911.25;4955365;28;20233;-77
2021/06/12 01:30:29;;;;;;;9.27;8.38;;;;;;;19.57;100.00;100909.63;4939717;28;20581;-75
2021/06/12 01:33:00;;;;;;;9.13;8.18;;;;;;;19.58;100.00;100902.97;4936497;28;20249;-76
2021/06/12 01:35:34;;;;;;;9.02;8.13;;;;;;;19.51;100.00;100900.72;4939504;28;20222;-76
2021/06/12 01:37:59;;;;;;;9.00;8.10;;;;;;;19.44;100.00;100899.59;4956376;28;20241;-76
2021/06/12 01:40:28;;;;;;;9.25;8.35;;;;;;;19.53;100.00;100897.63;4955415;28;20214;-77
2021/06/12 01:42:54;;;;;;;8.85;7.95;;;;;;;19.56;100.00;100895.06;4939192;28;20222;-76
2021/06/12 01:45:23;;;;;;;8.88;7.97;;;;;;;19.60;100.00;100892.47;4939966;28;20244;-76
2021/06/12 01:47:48;;;;;;;9.15;8.25;;;;;;;19.55;100.00;100892.63;4924041;28;20624;-75
2021/06/12 01:50:16;;;;;;;9.05;8.23;;;;;;;19.36;100.00;100892.13;4939460;28;20570;-76
2021/06/12 01:52:44;;;;;;;9.30;8.25;;;;;;;19.26;100.00;100883.38;4938783;28;20188;-76
2021/06/12 01:55:10;;;;;;;8.60;7.80;;;;;;;19.22;100.00;100877.69;4923364;28;20192;-74
2021/06/12 01:57:36;;;;;;;8.32;7.60;;;;;;;19.22;100.00;100877.69;4939725;28;20174;-74
2021/06/12 02:00:04;;;;;;;8.77;7.97;;;;;;;18.95;100.00;100875.22;4939275;28;20726;-74
2021/06/12 02:02:39;;;;;;;8.95;8.05;;;;;;;19.05;100.00;100877.69;4955763;28;20281;-73
2021/06/12 02:05:08;;;;;;;9.07;8.18;;;;;;;19.20;100.00;100879.97;4955266;28;20328;-73
2021/06/12 02:07:33;;;;;;;8.88;7.97;;;;;;;19.26;100.00;100873.16;4940119;28;20178;-75
2021/06/12 02:09:59;;;;;;;9.57;8.57;;;;;;;19.18;100.00;100873.97;4939879;28;20553;-76
2021/06/12 02:12:28;;;;;;;9.20;8.30;;;;;;;19.22;100.00;100876.88;4922986;28;20228;-74
2021/06/12 02:14:54;;;;;;;8.98;8.18;;;;;;;19.30;100.00;100882.38;4923957;28;20288;-74
2021/06/12 02:17:22;;;;;;;8.73;7.93;;;;;;;19.21;100.00;100876.09;4954458;28;20674;-76
2021/06/12 02:19:48;;;;;;;9.02;7.57;;;;;;;19.15;100.00;100871.84;4955544;28;20615;-74
2021/06/12 02:22:15;;;;;;;8.93;8.02;;;;;;;19.22;100.00;100872.19;4937824;28;20233;-74
2021/06/12 02:24:46;;;;;;;8.27;7.50;;;;;;;19.27;100.00;100872.03;4940273;28;20197;-75
2021/06/12 02:27:11;;;;;;;7.88;7.07;;;;;;;19.19;100.00;100874.78;4938906;28;20297;-74
2021/06/12 02:29:37;;;;;;;8.73;7.85;;;;;;;19.26;100.00;100878.66;4939565;28;20182;-74
2021/06/12 02:32:08;;;;;;;9.38;7.63;;;;;;;19.33;100.00;100870.72;4954189;28;20236;-75
2021/06/12 02:34:37;;;;;;;7.82;7.03;;;;;;;19.39;100.00;100878.50;4939379;28;20628;-74
2021/06/12 02:37:08;;;;;;;7.80;7.07;;;;;;;19.51;100.00;100878.66;4939169;28;20242;-75
2021/06/12 02:39:33;;;;;;;8.70;7.90;;;;;;;19.55;100.00;100865.03;4954842;28;20688;-75
2021/06/12 02:42:00;;;;;;;8.23;7.40;;;;;;;19.36;100.00;100859.06;4937671;28;20240;-74
2021/06/12 02:44:25;;;;;;;8.05;7.35;;;;;;;19.44;100.00;100864.56;4939038;28;20190;-75
2021/06/12 02:46:51;;;;;;;9.55;7.22;;;;;;;19.58;100.00;100867.97;4954301;28;20222;-75
2021/06/12 02:49:26;;;;;;;7.45;6.68;;;;;;;19.66;100.00;100861.63;4923482;28;20202;-75
2021/06/12 02:51:59;;;;;;;8.55;6.72;;;;;;;19.67;100.00;100864.06;4952684;28;20727;-75
2021/06/12 02:54:24;;;;;;;6.80;6.20;;;;;;;19.57;100.00;100846.25;4955253;28;20201;-74
2021/06/12 02:56:50;;;;;;;7.50;6.72;;;;;;;19.44;100.00;100848.03;4922720;28;20646;-75
2021/06/12 02:59:18;;;;;;;7.45;6.75;;;;;;;19.37;100.00;100839.44;4923486;28;20190;-75
2021/06/12 03:01:44;;;;;;;7.85;7.03;;;;;;;19.40;100.00;100838.78;4938295;28;20277;-75
2021/06/12 03:04:10;;;;;;;7.18;6.50;;;;;;;19.21;100.00;100836.69;4939600;28;20186;-74
2021/06/12 03:06:36;;;;;;;7.18;6.47;;;;;;;19.08;100.00;100832.97;4921535;28;20226;-75
2021/06/12 03:09:05;;;;;;;7.40;6.70;;;;;;;19.20;100.00;100835.88;4919676;29;20199;-75
2021/06/12 03:11:30;;;;;;;8.57;7.45;;;;;;;19.28;100.00;100848.84;4906410;29;20235;-76
2021/06/12 03:13:59;;;;;;;7.82;7.03;;;;;;;19.00;100.00;100857.75;4906714;29;20666;-75
2021/06/12 03:16:24;;;;;;;8.02;7.22;;;;;;;18.89;100.00;100857.22;4920889;29;20227;-75
2021/06/12 03:18:54;;;;;;;7.88;7.18;;;;;;;18.97;100.00;100853.72;4921430;29;20215;-75
2021/06/12 03:21:23;;;;;;;8.82;7.88;;;;;;;19.11;100.00;100859.06;4922212;29;20286;-74
2021/06/12 03:23:51;;;;;;;8.85;7.53;;;;;;;19.16;100.00;100862.47;4906480;29;20188;-74
2021/06/12 03:26:26;;;;;;;8.07;7.25;;;;;;;19.17;100.00;100864.06;4912467;28;20705;-74
2021/06/12 03:28:52;;;;;;;7.70;6.97;;;;;;;19.27;100.00;100861.81;4923523;29;20191;-77
2021/06/12 03:31:17;;;;;;;9.00;7.68;;;;;;;19.31;100.00;100870.25;4941116;29;20233;-76
2021/06/12 03:33:43;;;;;;;8.27;7.47;;;;;;;19.44;100.00;100869.28;4923422;29;20677;-76
2021/06/12 03:36:09;;;;;;;7.45;6.70;;;;;;;19.24;100.00;100864.41;4921523;29;20222;-76
2021/06/12 03:38:35;;;;;;;8.15;6.85;;;;;;;19.26;100.00;100866.84;4921439;29;20179;-78
2021/06/12 03:41:04;;;;;;;7.90;6.65;;;;;;;19.26;100.00;116259.97;4951485;28;20249;-77
2021/06/12 03:43:29;;;;;;;7.93;7.13;;;;;;;19.17;100.00;100850.28;4918702;29;20206;-76
2021/06/12 03:45:59;;;;;;;7.13;6.43;;;;;;;19.02;100.00;100838.97;4951858;28;20768;-77
2021/06/12 03:48:24;;;;;;;7.70;6.90;;;;;;;18.91;100.00;100843.13;4935243;28;20207;-76
2021/06/12 03:50:51;;;;;;;8.30;7.50;;;;;;;19.08;100.00;100832.16;4946055;28;20274;-77
2021/06/12 03:53:17;;;;;;;8.77;7.97;;;;;;;19.05;100.00;100839.13;4888338;29;20196;-78
2021/06/12 03:55:48;;;;;;;9.02;8.13;;;;;;;19.13;100.00;100846.56;4952322;28;20229;-77
2021/06/12 03:58:13;;;;;;;8.80;8.00;;;;;;;19.11;100.00;100848.84;4930645;29;20187;-77
2021/06/12 04:00:39;;;;;;;9.85;8.82;;;;;;;19.18;100.00;100832.66;4909693;28;20727;-78
2021/06/12 04:03:05;;;;;;;9.57;8.57;;;;;;;19.15;100.00;100838.78;4932094;28;20194;-78
2021/06/12 04:05:30;;;;;;;10.73;9.73;;;;;;;19.34;100.00;100842.06;4931568;28;20230;-76
2021/06/12 04:07:56;;;;;;;12.07;10.52;;;;;;;19.43;100.00;100842.84;4913511;29;20194;-76
2021/06/12 04:10:25;;;;;;;14.23;11.27;;;;;;;19.49;100.00;100850.63;4941705;28;20203;-76
2021/06/12 04:12:50;;;;;;;13.43;10.70;;;;;;;19.56;100.00;100841.84;4953425;29;20625;-77
2021/06/12 04:15:16;;;;;;;14.23;11.80;;;;;;;19.66;100.00;100833.25;4937283;28;20183;-76
2021/06/12 04:17:45;;;;;;;13.38;11.98;;;;;;;19.52;100.00;100832.63;4936985;29;20234;-76
2021/06/12 04:20:12;;;;;;;14.20;12.57;;;;;;;19.59;100.00;100839.25;4947586;28;20720;-77
2021/06/12 04:22:40;;;;;;;15.52;13.68;;;;;;;19.71;100.00;100839.41;4931456;28;20219;-76
2021/06/12 04:25:06;;;;;;;13.85;12.35;;;;;;;19.71;100.00;100839.41;4947928;28;20185;-76
2021/06/12 04:27:35;;;;;;;18.42;14.88;;;;;;;19.67;100.00;100836.50;4916220;28;20199;-76
2021/06/12 04:30:01;;;;;;;16.38;13.77;;;;;;;19.58;100.00;100828.53;4925418;29;20231;-76
2021/06/12 04:32:26;;;;;;;16.80;14.88;;;;;;;19.62;100.00;100838.59;4927023;28;20227;-76
2021/06/12 04:34:54;;;;;;;16.45;14.60;;;;;;;19.71;100.00;100837.44;4894766;29;20203;-77
2021/06/12 04:37:24;;;;;;;18.45;14.90;;;;;;;19.71;100.00;100837.44;4945526;28;20223;-76
2021/06/12 04:39:50;;;;;;;18.02;15.95;;;;;;;19.59;100.00;100843.97;4908028;28;20214;-76
2021/06/12 04:42:16;;;;;;;16.65;14.63;;;;;;;19.63;100.00;100833.91;4939899;28;20226;-76
2021/06/12 04:44:41;;;;;;;19.60;17.17;;;;;;;19.68;100.00;100832.56;4956793;28;20194;-79
2021/06/12 04:47:12;;;;;;;21.88;17.05;;;;;;;19.54;100.00;100830.34;4940881;28;20222;-76
2021/06/12 04:49:38;;;;;;;21.15;16.63;;;;;;;19.76;100.00;100831.78;4925432;28;20662;-77
2021/06/12 04:52:04;;;;;;;20.33;17.45;;;;;;;19.55;100.00;100831.97;4953907;28;20320;-77
2021/06/12 04:54:29;;;;;;;21.60;18.05;;;;;;;19.55;100.00;100831.97;4940814;28;20290;-76
2021/06/12 04:56:59;;;;;;;23.30;18.67;;;;;;;19.60;100.00;100846.41;4960403;28;20226;-77
2021/06/12 04:59:29;;;;;;;22.95;19.17;;;;;;;19.55;100.00;100831.97;4959052;28;20206;-77
2021/06/12 05:01:55;;;;;;;22.95;18.95;;;;;;;19.56;100.00;100833.56;4955057;28;20238;-78
2021/06/12 05:04:23;;;;;;;23.67;20.02;;;;;;;19.56;100.00;100833.56;4940262;28;20532;-79
2021/06/12 05:06:54;;;;;;;23.88;20.00;;;;;;;-138.14;100.00;63448.66;4925026;28;20276;-76
2021/06/12 05:09:22;;;;;;;25.05;20.10;;;;;;;-138.14;100.00;63448.66;4923476;28;20348;-76
2021/06/12 05:11:47;;;;;;;22.83;20.35;;;;;;;19.72;100.00;100830.81;4923457;29;20761;-77
2021/06/12 05:14:13;;;;;;;22.08;19.02;;;;;;;;;;4885943;29;20195;-77
2021/06/12 05:16:41;;;;;;;22.13;18.88;;;;;;;19.64;100.00;100843.81;4936513;28;20321;-75
2021/06/12 05:19:06;;;;;;;24.70;20.55;;;;;;;19.80;100.00;100841.00;4935440;28;20210;-77
2021/06/12 05:21:32;;;;;;;24.63;21.30;;;;;;;19.61;100.00;100849.94;4954971;28;20245;-76
2021/06/12 05:24:00;;;;;;;25.15;21.08;;;;;;;19.61;100.00;100853.50;4955619;28;20186;-78
2021/06/12 05:26:26;;;;;;;24.05;20.25;;;;;;;19.73;100.00;100848.97;4936156;29;20268;-77
2021/06/12 05:28:52;;;;;;;25.25;20.95;;;;;;;19.56;100.00;100855.63;4922205;28;20182;-76
2021/06/12 05:31:17;;;;;;;24.38;20.48;;;;;;;19.62;100.00;100848.84;4952975;28;20236;-76
2021/06/12 05:33:46;;;;;;;23.55;20.17;;;;;;;19.62;100.00;100848.84;4955619;28;20191;-76
2021/06/12 05:36:11;;;;;;;24.65;20.27;;;;;;;19.66;100.00;100844.28;4955781;28;20637;-77
2021/06/12 05:38:39;;;;;;;26.13;20.85;;;;;;;19.66;100.00;100844.28;4955263;28;20190;-77
2021/06/12 05:41:05;;;;;;;24.70;20.77;;;;;;;-138.14;100.00;63448.66;4935660;28;20230;-77
2021/06/12 05:43:30;;;;;;;22.83;19.73;;;;;;;19.68;100.00;100856.59;4946820;28;20197;-76
2021/06/12 05:45:56;;;;;;;23.90;20.08;;;;;;;19.47;100.00;100857.59;4939291;28;20221;-77
2021/06/12 05:48:24;;;;;;;24.75;20.67;;;;;;;19.59;100.00;100846.72;4971701;28;20673;-77
2021/06/12 05:50:51;;;;;;;24.40;20.95;;;;;;;19.56;100.00;100850.13;4954702;28;20234;-76
2021/06/12 05:53:21;;;;;;;24.35;21.08;;;;;;;19.65;100.00;100849.00;4938877;28;20277;-76
2021/06/12 05:55:49;;;;;;;22.42;19.85;;;;;;;19.90;100.00;100851.69;4970815;28;20222;-75
2021/06/12 05:58:15;;;;;;;22.80;19.92;;;;;;;19.76;100.00;100855.75;4955012;28;20560;-76
2021/06/12 06:00:41;;;;;;;22.60;19.40;;;;;;;19.59;100.00;100854.97;4938094;28;20214;-77
2021/06/12 06:03:09;;;;;;;23.27;19.00;;;;;;;19.70;100.00;100852.34;4970969;28;20217;-76
2021/06/12 06:05:34;;;;;;;22.33;19.40;;;;;;;19.59;100.00;100849.47;4938500;28;20647;-75
2021/06/12 06:08:00;;;;;;;21.95;19.55;;;;;;;19.72;100.00;100836.31;4939613;28;20229;-77
2021/06/12 06:10:26;;;;;;;21.90;18.73;;;;;;;19.80;100.00;100841.00;4970378;28;20636;-76
2021/06/12 06:12:51;;;;;;;23.77;18.77;;;;;;;19.64;100.00;100838.28;4953812;28;20190;-77
2021/06/12 06:15:19;;;;;;;22.88;18.90;;;;;;;19.48;100.00;100850.94;4953883;28;20194;-76
2021/06/12 06:17:46;;;;;;;21.65;17.85;;;;;;;19.51;100.00;100864.09;4938366;28;20198;-77
2021/06/12 06:20:15;;;;;;;20.55;18.20;;;;;;;19.55;100.00;100851.28;4971406;28;20225;-77
2021/06/12 06:22:43;;;;;;;19.67;17.65;;;;;;;19.50;100.00;100846.72;4938233;28;20210;-76
2021/06/12 06:25:09;;;;;;;20.13;17.67;;;;;;;19.48;100.00;100834.41;4954193;28;20182;-76
2021/06/12 06:27:35;;;;;;;20.52;17.50;;;;;;;19.50;100.00;100834.88;4954462;28;20277;-76
2021/06/12 06:30:03;;;;;;;20.23;18.13;;;;;;;19.73;100.00;100829.66;4954707;28;20182;-77
2021/06/12 06:32:31;;;;;;;22.75;17.90;;;;;;;19.55;100.00;100834.72;4951664;28;20230;-76
2021/06/12 06:35:02;;;;;;;21.60;17.52;;;;;;;19.60;100.00;100834.56;4953810;28;20277;-77
2021/06/12 06:37:27;;;;;;;20.35;18.20;;;;;;;19.70;100.00;100837.78;4954459;28;20221;-77
2021/06/12 06:39:55;;;;;;;19.67;17.30;;;;;;;19.97;100.00;100832.72;4954045;28;20194;-77
2021/06/12 06:42:21;;;;;;;20.33;17.02;;;;;;;20.15;100.00;100832.31;4925733;28;20230;-77
2021/06/12 06:44:46;;;;;;;19.90;16.10;;;;;;;20.13;100.00;100828.28;4935112;29;20293;-76
2021/06/12 06:47:12;;;;;;;18.38;15.20;;;;;;;20.36;100.00;100832.38;4918188;29;20309;-77
2021/06/12 06:49:39;;;;;;;17.73;15.77;;;;;;;20.51;100.00;100841.72;4934628;29;20255;-77
2021/06/12 06:52:05;;;;;;;18.73;15.60;;;;;;;20.23;100.00;100825.94;4933388;28;20243;-76
2021/06/12 06:54:30;;;;;;;16.88;15.07;;;;;;;20.24;100.00;100816.53;4934724;29;20206;-77
2021/06/12 06:56:59;;;;;;;18.55;14.77;;;;;;;20.34;100.00;100829.16;4933734;29;20239;-77
2021/06/12 06:59:25;;;;;;;18.15;15.68;;;;;;;20.46;100.00;100830.88;4951238;29;20248;-77
2021/06/12 07:01:53;;;;;;;17.55;14.68;;;;;;;20.27;100.00;100834.38;4933279;28;20391;-76
2021/06/12 07:04:19;;;;;;;19.08;15.45;;;;;;;20.02;100.00;100827.03;4950998;29;20233;-76
2021/06/12 07:06:47;;;;;;;17.60;14.98;;;;;;;20.20;100.00;100828.56;4934573;29;20222;-77
2021/06/12 07:09:12;;;;;;;18.98;16.00;;;;;;;20.18;100.00;100814.28;4934901;29;20562;-77
2021/06/12 07:11:38;;;;;;;17.48;14.98;;;;;;;20.28;100.00;100820.25;4917634;29;20249;-77
2021/06/12 07:14:04;;;;;;;17.30;14.95;;;;;;;20.40;100.00;100814.00;4952052;29;20689;-77
2021/06/12 07:16:29;;;;;;;17.85;15.13;;;;;;;20.26;100.00;100816.22;4934413;29;20218;-77
2021/06/12 07:18:57;;;;;;;16.85;14.95;;;;;;;20.53;100.00;100820.13;4935100;29;20201;-76
2021/06/12 07:21:25;;;;;;;16.67;14.65;;;;;;;20.48;100.00;100817.53;4918974;29;20656;-78
2021/06/12 07:23:51;;;;;;;17.00;14.68;;;;;;;20.15;100.00;100803.91;4951340;29;20274;-78
2021/06/12 07:26:16;;;;;;;17.38;15.45;;;;;;;20.11;100.00;100803.78;4918793;29;20253;-77
2021/06/12 07:28:42;;;;;;;17.63;15.57;;;;;;;20.47;100.00;100813.19;4935060;29;20191;-77
2021/06/12 07:31:12;;;;;;;16.10;14.38;;;;;;;20.61;100.00;100813.72;4933301;28;20242;-77
2021/06/12 07:33:40;;;;;;;18.02;15.75;;;;;;;20.71;100.00;100807.84;4928755;29;20191;-77
2021/06/12 07:36:08;;;;;;;15.65;14.05;;;;;;;20.77;100.00;100809.28;4902262;29;20278;-78
2021/06/12 07:38:37;;;;;;;18.15;14.18;;;;;;;20.59;100.00;100818.78;4917602;29;20221;-76
2021/06/12 07:41:03;;;;;;;17.02;14.10;;;;;;;20.55;100.00;100817.84;4923134;28;20258;-77
2021/06/12 07:43:31;;;;;;;15.27;13.68;;;;;;;20.70;100.00;100800.72;4899841;29;20658;-77
2021/06/12 07:46:00;;;;;;;17.17;14.15;;;;;;;21.13;100.00;100815.00;4928308;29;20751;-77
2021/06/12 07:48:26;;;;;;;13.52;12.10;;;;;;;21.00;100.00;100805.03;4904113;29;20191;-77
2021/06/12 07:50:54;;;;;;;16.23;13.40;;;;;;;21.08;100.00;100798.63;4909796;29;20253;-77
2021/06/12 07:53:22;;;;;;;15.60;13.05;;;;;;;20.92;100.00;100792.91;4916687;29;20633;-77
2021/06/12 07:55:50;;;;;;;16.70;13.25;;;;;;;21.07;100.00;100795.06;4915718;29;20243;-77
2021/06/12 07:58:16;;;;;;;16.15;13.05;;;;;;;21.36;100.00;100794.97;4901292;29;20606;-77
2021/06/12 08:00:44;;;;;;;15.05;12.13;;;;;;;21.58;100.00;100795.41;4903288;29;20250;-77
2021/06/12 08:03:10;;;;;;;13.85;12.27;;;;;;;21.39;100.00;100792.34;4936478;29;20600;-78
2021/06/12 08:05:38;;;;;;;14.02;12.43;;;;;;;20.78;100.00;100799.03;4918182;29;20242;-77
2021/06/12 08:08:06;;;;;;;13.73;12.25;;;;;;;20.90;100.00;100795.19;4917465;29;20195;-77
2021/06/12 08:10:33;;;;;;;13.35;11.93;;;;;;;20.61;100.00;100812.94;4933360;29;20305;-78
2021/06/12 08:12:58;;;;;;;14.05;11.98;;;;;;;20.61;100.00;100807.41;4930043;29;20712;-77
2021/06/12 08:15:29;;;;;;;14.25;11.60;;;;;;;20.87;100.00;100795.06;4950295;29;20223;-79
2021/06/12 08:17:55;;;;;;;15.13;11.50;;;;;;;21.32;100.00;100802.34;4939994;29;20202;-75
2021/06/12 08:20:25;;;;;;;14.38;11.68;;;;;;;21.68;100.00;100794.97;4906912;28;20217;-77
2021/06/12 08:22:51;;;;;;;15.13;11.90;;;;;;;21.87;100.00;100792.50;4906556;29;20191;-77
2021/06/12 08:25:18;;;;;;;14.23;11.98;;;;;;;22.18;96.87;100797.19;4923672;28;20239;-77
2021/06/12 08:27:46;;;;;;;15.60;11.73;;;;;;;21.83;97.17;100792.38;4924222;29;20198;-78
2021/06/12 08:30:12;;;;;;;13.07;11.27;;;;;;;21.57;99.48;100793.78;4939272;28;20221;-77
2021/06/12 08:32:40;;;;;;;13.63;11.93;;;;;;;21.24;100.00;100795.72;4960624;29;20191;-79
2021/06/12 08:35:09;;;;;;;14.00;11.85;;;;;;;20.98;100.00;100807.31;4929005;28;20175;-79
2021/06/12 08:37:34;;;;;;;16.42;12.30;;;;;;;20.69;100.00;100812.09;4910933;29;20201;-78
2021/06/12 08:40:00;;;;;;;14.70;12.30;;;;;;;20.51;100.00;100808.59;4925049;28;20218;-78
2021/06/12 08:42:28;;;;;;;14.68;12.23;;;;;;;20.28;100.00;100800.94;4943103;29;20266;-78
2021/06/12 08:44:54;;;;;;;15.07;12.82;;;;;;;20.18;100.00;100803.25;4932579;29;20225;-79
2021/06/12 08:47:25;;;;;;;13.77;12.32;;;;;;;20.12;100.00;100794.34;4929664;29;20222;-79
2021/06/12 08:49:52;;;;;;;14.57;13.00;;;;;;;19.93;100.00;100800.63;4931607;29;20206;-78
2021/06/12 08:52:18;;;;;;;15.32;13.13;;;;;;;19.98;100.00;100795.72;4921524;29;20653;-78
2021/06/12 08:54:44;;;;;;;14.65;12.73;;;;;;;19.97;100.00;100796.84;4910222;29;20199;-78
2021/06/12 08:57:12;;;;;;;17.05;13.85;;;;;;;19.91;100.00;100808.41;4938147;29;20237;-78
2021/06/12 08:59:40;;;;;;;16.02;13.75;;;;;;;19.79;100.00;100811.78;4926471;29;20215;-78
2021/06/12 09:02:06;;;;;;;15.60;14.00;;;;;;;20.10;100.00;100801.34;4923172;28;20250;-79
2021/06/12 09:04:33;;;;;;;15.43;13.82;;;;;;;20.18;100.00;100798.56;4924888;29;20202;-78
2021/06/12 09:07:19;;;;;;;16.98;13.98;;;;;;;20.23;100.00;100817.66;4906986;29;20227;-77
2021/06/12 09:09:48;;;;;;;16.30;13.05;;;;;;;20.64;100.00;100813.09;4915752;29;20309;-78
2021/06/12 09:12:14;;;;;;;15.40;12.60;;;;;;;20.65;100.00;100820.22;4907193;29;20267;-78
2021/06/12 09:14:40;;;;;;;14.00;12.63;;;;;;;20.83;100.00;100811.50;4917224;28;20317;-75
2021/06/12 09:17:08;;;;;;;13.23;11.68;;;;;;;21.00;100.00;100800.31;4955263;28;20226;-79
2021/06/12 09:19:40;;;;;;;11.38;10.23;;;;;;;21.07;100.00;100811.63;4941425;28;20210;-78
2021/06/12 09:22:06;;;;;;;15.10;11.40;;;;;;;21.23;100.00;100810.69;4970820;28;20712;-78
2021/06/12 09:24:42;;;;;;;11.57;10.35;;;;;;;21.08;100.00;100813.25;4938828;28;20229;-78
2021/06/12 09:27:13;;;;;;;12.27;10.98;;;;;;;21.15;100.00;100805.22;4918212;28;20314;-78
2021/06/12 09:29:42;;;;;;;12.25;10.20;;;;;;;21.37;100.00;100811.22;4894862;29;20260;-78
2021/06/12 09:32:14;;;;;;;10.43;9.40;;;;;;;21.53;100.00;100814.19;4935181;29;20235;-77
2021/06/12 09:34:40;;;;;;;10.20;9.20;;;;;;;21.87;100.00;100820.97;4910369;29;20563;-78
2021/06/12 09:37:25;;;;;;;9.50;8.60;;;;;;;21.79;97.43;100821.84;4917994;29;20618;-77
2021/06/12 09:40:04;;;;;;;9.50;8.57;;;;;;;21.41;98.41;100839.00;4912233;28;20572;-77
2021/06/12 09:42:50;;;;;;;7.93;6.10;;;;;;;20.29;96.21;100837.59;4947360;28;20362;-77
2021/06/12 09:45:30;;;;;;;6.75;5.43;;;;;;;19.71;97.75;100859.50;4955832;28;20206;-76
2021/06/12 09:48:11;;;;;;;5.65;4.75;;;;;;;19.75;97.29;100860.47;4955965;28;20213;-75
2021/06/12 09:50:37;;;;;;;6.10;4.47;;;;;;;19.76;98.67;100856.59;4938271;28;20222;-75
2021/06/12 09:53:15;;;;;;;5.88;4.55;;;;;;;19.63;97.14;100861.47;4970720;28;20604;-77
2021/06/12 09:55:43;;;;;;;4.95;4.28;;;;;;;19.70;95.70;100855.13;4923233;28;20307;-77
2021/06/12 09:58:11;;;;;;;4.10;3.70;;;;;;;20.01;93.01;100852.97;4939850;28;20665;-78
2021/06/12 10:00:39;;;;;;;4.68;3.63;;;;;;;20.40;92.24;100849.91;4956157;28;20292;-77
2021/06/12 10:03:23;;;;;;;5.82;3.70;;;;;;;20.37;91.66;100870.69;4955139;28;20292;-78
2021/06/12 10:05:49;;;;;;;5.55;3.95;;;;;;;20.28;90.21;100871.88;4938909;28;20277;-79
2021/06/12 10:08:18;;;;;;;5.72;4.07;;;;;;;20.85;88.21;100880.22;4940098;28;20186;-77
2021/06/12 10:10:48;;;;;;;4.05;3.45;;;;;;;21.00;85.20;100871.34;4932164;29;20243;-79
2021/06/12 10:13:14;;;;;;;4.45;3.50;;;;;;;21.56;83.70;100871.59;4918221;28;20213;-80
2021/06/12 10:15:42;;;;;;;6.55;3.28;;;;;;;21.73;79.48;100878.56;4942529;28;20688;-79
2021/06/12 10:18:09;;;;;;;4.10;3.40;;;;;;;21.32;78.45;100885.25;4939113;29;20195;-78
2021/06/12 10:20:34;;;;;;;4.72;3.42;;;;;;;21.09;79.88;100883.16;4928361;28;20289;-76
2021/06/12 10:23:03;;;;;;;6.18;3.20;;;;;;;20.95;78.63;100891.69;4940396;29;20198;-76
2021/06/12 10:25:32;;;;;;;4.03;2.95;;;;;;;20.85;76.81;100903.13;4926142;29;20227;-77
2021/06/12 10:27:58;;;;;;;3.63;2.78;;;;;;;20.95;75.22;100885.34;4914097;29;20555;-77
2021/06/12 10:30:24;;;;;;;6.25;3.03;;;;;;;20.90;75.10;100907.66;4908244;28;20200;-77
2021/06/12 10:32:50;;;;;;;4.07;2.80;;;;;;;20.92;76.30;100897.09;4970826;28;20616;-80
2021/06/12 10:35:25;;;;;;;5.10;2.75;;;;;;;20.85;75.36;100896.78;4940369;28;20221;-78
2021/06/12 10:38:05;;;;;;;5.18;2.53;;;;;;;21.38;75.54;100890.22;4931653;29;20183;-79
2021/06/12 10:40:41;;;;;;;4.40;2.75;;;;;;;21.83;70.54;100897.50;4927747;28;20222;-78
2021/06/12 10:43:19;;;;;;;4.97;2.70;;;;;;;21.91;68.66;100893.84;4949140;28;20186;-78
2021/06/12 10:46:08;;;;;;;2.95;2.20;;;;;;;22.62;65.19;100887.63;4937738;28;20238;-78
2021/06/12 10:48:36;;;;;;;3.40;2.10;;;;;;;23.23;65.62;100888.09;4943921;28;20612;-77
2021/06/12 10:51:05;;;;;;;3.83;2.20;;;;;;;22.23;64.78;100885.53;4932730;28;20617;-78
2021/06/12 10:53:34;;;;;;;4.82;2.10;;;;;;;21.62;63.93;100902.25;4915581;29;20198;-77
2021/06/12 10:56:04;;;;;;;5.75;3.30;;;;;;;21.45;63.68;100912.66;4899163;29;20232;-77
2021/06/12 10:58:39;;;;;;;3.35;1.52;;;;;;;21.60;60.18;100902.94;4901070;29;20283;-78
2021/06/12 11:01:23;;;;;;;3.75;1.60;;;;;;;22.07;59.77;100898.38;4933358;28;20249;-78
2021/06/12 11:04:16;;;;;;;4.65;1.80;;;;;;;22.17;58.06;100897.16;4910870;29;20221;-77
2021/06/12 11:07:06;;;;;;;3.85;1.40;;;;;;;22.06;57.26;100902.28;4900427;29;20246;-78
2021/06/12 11:09:37;;;;;;;4.03;1.75;;;;;;;21.71;57.44;100905.75;4924330;29;20722;-78
2021/06/12 11:12:30;;;;;;;3.85;1.80;;;;;;;21.68;57.14;100905.63;4904860;29;20228;-78
2021/06/12 11:15:07;;;;;;;3.65;1.75;;;;;;;21.70;56.84;100897.78;4934681;29;20574;-79
2021/06/12 11:17:34;;;;;;;3.70;1.58;;;;;;;22.31;57.05;100886.59;4933774;29;20239;-80